logo dgac
Viernes 01 de Julio del 2022
Buscar por aerodromo o helipuerto
Ingrese nombre de aeródromo, localidad o designador OACI:

Aeródromo: Desierto de Atacama (PUB) (SCAT)

Ubicación: Caldera, III Región, Chile (27º 15' 42'' S, 70º 46' 45'' W) Ver ubicación en el mapa

Pistas

Orientación Dimensión Pendiente Superficie Resistencia APCH THR RWY PAPI
17/35 2200 X 45 0,70 ASPH PCN 48 F/A/W/T
Horas de operación HJ
Elevación 204 m / 670 ft
Otra Información Adm : D.G.A.C
Uso : PUB
Ubicado : 22 km SE de Caldera y 52 km NW Copiapó
TEL 52-2523600 2523603
ARO TEL/FAX 522523605 ARO CEL +56 961745281 TWR CEL +56 961740952
email : aro.atacama@dgac.gob.cl

Otra información ver AIP-Chile Volumen I AD 3.9-3.2-C

CCCM/FCCV Descargar
andera de Chile
Mapa de Desierto de Atacama (PUB) (SCAT)

Último METAR

METAR SCAT 011400Z 10005KT 070V130 9999 OVC017 12/08 Q1020

Último TAF

TAF SCAT 011020Z 0112/0212 17004KT 9999 OVC017 TX17/0119Z TN08/0210Z BECMG 0115/0117 22010KT CAVOK BECMG 0200/0202 18004KT

Últimas fotos cámaras

Imagen aerodromo Desierto de Atacama (PUB) (SCAT) Norte tomada el 01-07-2022 02:16:14 Imagen aerodromo Desierto de Atacama (PUB) (SCAT) Sur tomada el 01-07-2022 02:16:07

Último NOTAM

C2976/22 NOTAMR C2651/22 Q)SCFZ/QMKLX/IV/M/A/000/999/2716S07047W005 A)SCAT B)2206301428 C)2209302359 E)PRKG 1 CTN, LGT DEFICIENTE